Central Il Rgnl Arpt at Bloomington-Normal Airport
KBMI : now visible

Airfield :











YOU CAN JOIN US ON...

 
LOGIN :

Register | Disclaimer

   EN    FR    IT 

 









Legend :    VFR   Marginal VFR   IFR   Intensive IFR   Very Intensive IFR
Visi :
Ceiling :
>= 8 km
>= 3000ft
5 to 8 km
1000 to 3000 ft
1500m to 5 km
500 to 1000 ft
800 to 1500m
200 to 500 ft
< 800m
< 200 ft
Symbols :   Thunderstorms  Fog  Heavy snow  Heavy precipitations  Wind > 20 kt







- Airport Elevation : 871 ft
- IATA code : BMI


KBMI - Central Il Rgnl Arpt at Bloomington-Normal

CURRENT METAR :
  • 190941Z AUTO 16004KT 1/2SM R20/1600V3500FT FG BKN002 OVC095 19/19 A2999 RMK AO2

EXPIRED METARs :
  • 190934Z AUTO 16004KT 3/4SM R20/1600V5500FT BR BKN002 BKN095 19/19 A2999 RMK AO2 VIS 1/2V4
  • 190917Z AUTO 00000KT 5SM R20/3000V4500FT BR SCT095 19/19 A2998 RMK AO2
  • 190906Z AUTO 00000KT 1 1/2SM R20/1600VP6000FT BR CLR 21/20 A2998 RMK AO2 VIS 1/2V5
  • 190856Z AUTO 00000KT 4SM R20/3500VP6000FT BR CLR 21/21 A2998 RMK AO2 SLP145 T02060206 53006
  • 190827Z AUTO 00000KT 3SM BR CLR 21/21 A2997 RMK AO2
  • 190814Z AUTO 00000KT 1 1/4SM R20/4500VP6000FT BR CLR 20/20 A2997 RMK AO2
  • 190806Z AUTO 00000KT 3/4SM R20/1400VP6000FT BR VV002 20/20 A2997 RMK AO2 VIS 1/2V5
  • 190756Z AUTO 00000KT 4SM R20/1200V1600FT BR FEW002 20/20 A2997 RMK AO2 SLP141 T02000200
  • 190746Z AUTO 19003KT 5SM R20/1600V2400FT BR SCT002 20/20 A2997 RMK AO2
  • 190737Z AUTO 00000KT 2 1/2SM R20/1800V3500FT BR CLR 20/20 A2997 RMK AO2 VIS 3/4V5
  • 190701Z AUTO 16003KT 4SM R20/2600VP6000FT BR CLR 20/20 A2996 RMK AO2
  • 190656Z AUTO 16003KT 1 1/4SM R20/2800VP6000FT BR CLR 20/20 A2996 RMK AO2 SLP137 T02000200

TAF KBMI
Valid from the 19 at 10:00 until the 20 at 06:00 UTC


190932Z 1910/2006 15004KT 2SM BR FEW002 BKN100
TEMPO 1910/1913 1/2SM FG VV002
FM191800 VRB06KT P6SM VCSH BKN040
FM200000 VRB04KT P6SM SCT250
No reported NOTAMs for that airfield.



MET'MAP, your aeronautical weather chart ! - Copyright ORBIFLY December 2007 - Disclaimer

ORBIFLY MET'MAP TEAM :

Programming & Development : Alexandra Zaïnal
Concept & Development : Baudouin d'Aumeries
Co-Development & Prog : Marc-Olivier Méhu
Technical & hardware support : Manuel Goepfert

Contact : metmap@orbifly.com




SOURCES & CREDITS :

   NOAA       Earth
Advisory